CW6739 Weather Reports


time (UTC)temp
F
wind
direction
speed
knots
gust
knots
rain 1hr
in
rain 24hr
in
rain mn
in
humidity
%
barometer
mb
20190521080211 45 119 0.0 1.7 0.00 0.01 0.00 61 1010.9
20190521073211 47 119 0.0 0.0 0.00 0.01 0.01 57 1010.6
20190521070209 49 119 0.0 0.9 0.00 0.01 0.01 54 1010.3
20190521063209 50 119 0.0 4.3 0.00 0.01 0.01 51 1010.2
20190521060208 53 120 0.0 0.0 0.00 0.01 0.01 46 1009.7
20190521053207 56 120 0.0 7.0 0.00 0.01 0.01 38 1009.4
20190521050206 57 153 0.0 12.2 0.00 0.01 0.01 33 1009.0
20190521043205 58 124 0.0 9.6 0.00 0.01 0.01 34 1008.5
20190521040204 59 127 0.9 9.6 0.00 0.01 0.01 32 1008.2
20190521033203 60 175 0.0 10.4 0.00 0.01 0.01 33 1008.1
20190521030202 61 192 3.5 12.2 0.00 0.01 0.01 31 1008.0
20190521023201 61 84 2.6 16.5 0.00 0.01 0.01 32 1007.9
20190521020200 61 113 1.7 13.9 0.00 0.01 0.01 30 1007.8
20190521013159 63 109 7.0 13.0 0.00 0.01 0.01 30 1007.7
20190521010159 63 78 5.2 11.3 0.00 0.01 0.01 29 1007.4
20190521003158 61 78 0.0 12.2 0.00 0.01 0.01 31 1007.3
20190521000227 60 77 6.1 13.0 0.00 0.01 0.01 32 1007.1
20190520233226 58 135 0.0 15.6 0.00 0.01 0.01 33 1007.0
20190520230225 59 108 6.1 12.2 0.00 0.01 0.01 33 1006.7
20190520223224 60 97 0.9 13.0 0.00 0.01 0.01 32 1006.4
20190520220223 63 14 0.0 10.4 0.00 0.01 0.01 29 1006.4
20190520213222 62 89 5.2 10.4 0.00 0.01 0.01 28 1006.3
20190520210221 62 138 2.6 11.3 0.00 0.01 0.01 31 1006.2
20190520203221 59 134 0.0 13.9 0.00 0.01 0.01 34 1006.0
20190520200219 59 196 0.0 11.3 0.00 0.01 0.01 37 1005.6
20190520193219 58 78 0.0 12.2 0.00 0.01 0.01 35 1005.2
20190520190218 59 167 5.2 12.2 0.00 0.01 0.01 37 1004.7
20190520183216 56 119 0.0 12.2 0.00 0.01 0.01 44 1004.2
20190520180216 55 195 6.1 20.0 0.00 0.01 0.01 48 1004.5
20190520173215 53 163 7.0 17.4 0.00 0.01 0.01 53 1004.1
20190520170214 52 163 0.0 11.3 0.00 0.01 0.01 60 1004.4
20190520163213 51 113 6.1 12.2 0.01 0.01 0.01 61 1004.2
20190520160212 50 156 0.9 13.0 0.01 0.01 0.01 60 1004.1
20190520153211 48 119 5.2 11.3 0.00 0.00 0.00 64 1003.9
20190520150211 46 37 0.0 4.3 0.00 0.00 0.00 76 1003.5
20190520143209 47 81 0.0 6.1 0.00 0.00 0.00 73 1003.1
20190520140209 47 167 0.0 6.1 0.00 0.00 0.00 71 1003.3
20190520133208 47 148 0.0 9.6 0.00 0.00 0.00 72 1003.2
20190520130207 47 128 0.0 10.4 0.00 0.00 0.00 72 1003.5
20190520123206 47 121 3.5 13.9 0.00 0.00 0.00 75 1003.5
20190520120205 47 122 0.0 10.4 0.00 0.00 0.00 78 1003.4
20190520113204 48 117 0.0 7.8 0.00 0.00 0.00 74 1003.0
20190520110203 48 138 4.3 10.4 0.00 0.00 0.00 64 1002.4
20190520103202 44 71 3.5 7.0 0.00 0.00 0.00 74 1002.2
20190520100201 41 118 0.0 0.0 0.00 0.00 0.00 88 1002.0
20190520093201 41 118 0.0 0.0 0.00 0.00 0.00 86 1001.7
20190520090200 42 118 0.0 0.0 0.00 0.00 0.00 84 1001.5
20190520083159 44 118 0.0 0.0 0.00 0.00 0.00 82 1001.8